Latest Coastal Weather Observations for Frankston

IDV60701

Issued at 11:41 pm EST Sunday 1 May 2016 (issued every 10 minutes, with the page automatically refreshed every 10 minutes)

About coastal observations | Map of coastal stations | Coastal observations for VIC | Marine services | Other Formats
Station Details ID: 086371 Name: FRANKSTON AWS Lat: -38.15 Lon: 145.12 Height: 6.0 m
Data from the previous 72 hours. | See also: Recent months at Frankston
Date/Time
EST
Temp

°C
Wind Pressure Rain
since 9am
mm
Weather Cloud Vis
km
Sea
Height
m
Swell
Dir
 
Speed
knots
Gust
knots
hPa Trend Height
m
Period
s
Dir
01/11:30pm 13.4 NW 17 22 - - - - - - - - - -
01/11:00pm 13.6 NW 17 22 - - - - - - - - - -
01/10:30pm 13.7 WNW 17 22 - - - - - - - - - -
01/10:00pm 13.5 WNW 16 20 - - - - - - - - - -
01/09:30pm 13.7 NW 16 20 - - - - - - - - - -
01/09:00pm 13.7 NW 17 22 - - - - - - - - - -
01/08:30pm 13.8 NW 18 24 - - - - - - - - - -
01/08:00pm 14.0 WNW 17 21 - - - - - - - - - -
01/07:30pm 14.0 WNW 17 21 - - - - - - - - - -
01/07:00pm 14.3 W 18 23 - - - - - - - - - -
01/06:30pm 14.1 W 19 23 - - - - - - - - - -
01/06:00pm 14.4 WNW 20 25 - - - - - - - - - -
01/05:30pm 14.7 WNW 20 24 - - - - - - - - - -
01/05:00pm 14.0 WNW 21 25 - - - - - - - - - -
01/04:30pm 14.3 W 21 26 - - - - - - - - - -
01/04:00pm 13.8 W 24 30 - - - - - - - - - -
01/03:30pm 14.3 W 24 31 - - - - - - - - - -
01/03:00pm 14.6 WNW 23 30 - - - - - - - - - -
01/02:30pm 14.3 WNW 21 29 - - - - - - - - - -
01/02:00pm 14.7 WNW 21 26 - - - - - - - - - -
01/01:30pm 13.6 WNW 18 23 - - - - - - - - - -
01/01:00pm 12.8 WNW 23 30 - - - - - - - - - -
01/12:30pm 14.0 WNW 21 25 - - - - - - - - - -
01/12:00pm 13.7 W 27 33 - - - - - - - - - -
01/11:33am 12.9 WNW 27 41 - - - - - - - - - -
01/11:30am 15.0 WNW 27 34 - - - - - - - - - -
01/11:00am 15.1 WNW 25 33 - - - - - - - - - -
01/10:30am 15.1 NW 25 31 - - - - - - - - - -
01/10:00am 15.1 NW 23 31 - - - - - - - - - -
01/09:30am 14.7 NW 23 30 - - - - - - - - - -
01/09:00am 15.0 NW 22 29 - - - - - - - - - -
01/08:30am 14.1 NW 28 40 - - - - - - - - - -
01/08:18am 16.1 NW 27 37 - - - - - - - - - -
01/08:00am 16.7 NW 25 33 - - - - - - - - - -
01/07:46am 16.7 NNW 21 29 - - - - - - - - - -
01/07:30am 16.1 N 18 23 - - - - - - - - - -
01/07:00am 16.1 N 20 25 - - - - - - - - - -
01/06:30am 16.2 N 18 22 - - - - - - - - - -
01/06:00am 15.9 N 15 19 - - - - - - - - - -
01/05:30am 15.7 N 15 20 - - - - - - - - - -
01/05:00am 15.5 NNE 13 18 - - - - - - - - - -
01/04:30am 16.9 NNW 17 21 - - - - - - - - - -
01/04:15am 16.1 NNW 17 24 - - - - - - - - - -
01/04:00am 16.6 NW 20 26 - - - - - - - - - -
01/03:30am 14.9 W 22 35 - - - - - - - - - -
01/03:26am 15.9 W 17 28 - - - - - - - - - -
01/03:00am 19.7 NNE 10 16 - - - - - - - - - -
01/02:30am 20.6 NNE 16 23 - - - - - - - - - -
01/02:00am 20.2 NNE 16 22 - - - - - - - - - -
01/01:30am 20.1 NNE 16 23 - - - - - - - - - -
01/01:00am 20.0 NNE 11 18 - - - - - - - - - -
01/12:30am 19.5 NE 7 14 - - - - - - - - - -
01/12:00am 19.9 NE 7 10 - - - - - - - - - -
 
Date/Time
EST
Temp

°C
Wind Pressure Rain
since 9am
mm
Weather Cloud Vis
km
Sea
Height
m
Swell
Dir
 
Speed
knots
Gust
knots
hPa Trend Height
m
Period
s
Dir
30/11:30pm 20.4 NNE 10 15 - - - - - - - - - -
30/11:00pm 20.3 NNE 7 12 - - - - - - - - - -
30/10:30pm 20.3 NE 7 15 - - - - - - - - - -
30/10:00pm 19.8 NE 7 11 - - - - - - - - - -
30/09:30pm 19.6 ENE 5 8 - - - - - - - - - -
30/09:00pm 20.0 NE 7 11 - - - - - - - - - -
30/08:30pm 19.9 NE 6 10 - - - - - - - - - -
30/08:00pm 20.2 NE 7 10 - - - - - - - - - -
30/07:30pm 20.2 NNE 7 9 - - - - - - - - - -
30/07:00pm 20.3 NNE 5 7 - - - - - - - - - -
30/06:30pm 19.9 N 10 13 - - - - - - - - - -
30/06:00pm 21.0 N 12 15 - - - - - - - - - -
30/05:30pm 20.9 N 12 15 - - - - - - - - - -
30/05:00pm 20.5 N 11 13 - - - - - - - - - -
30/04:30pm 21.0 N 13 16 - - - - - - - - - -
30/04:00pm 21.2 N 13 16 - - - - - - - - - -
30/03:30pm 21.2 N 14 17 - - - - - - - - - -
30/03:00pm 21.3 N 15 21 - - - - - - - - - -
30/02:30pm 20.9 N 14 18 - - - - - - - - - -
30/02:00pm 20.6 N 12 15 - - - - - - - - - -
30/01:30pm 20.8 N 14 18 - - - - - - - - - -
30/01:00pm 20.3 N 14 17 - - - - - - - - - -
30/12:30pm 20.4 N 17 22 - - - - - - - - - -
30/12:00pm 20.6 N 19 25 - - - - - - - - - -
30/11:30am 20.1 N 19 23 - - - - - - - - - -
30/11:00am 19.8 N 16 20 - - - - - - - - - -
30/10:30am 19.5 N 15 20 - - - - - - - - - -
30/10:00am 19.1 N 13 16 - - - - - - - - - -
30/09:30am 18.8 N 13 16 - - - - - - - - - -
30/09:00am 18.3 NNE 9 12 - - - - - - - - - -
30/08:30am 17.8 NNE 9 10 - - - - - - - - - -
30/08:00am 17.4 NE 5 8 - - - - - - - - - -
30/07:30am 17.1 NNE 7 9 - - - - - - - - - -
30/07:00am 16.9 NNE 6 8 - - - - - - - - - -
30/06:30am 17.4 NNE 10 12 - - - - - - - - - -
30/06:00am 17.0 NNE 7 9 - - - - - - - - - -
30/05:30am 16.4 NE 5 7 - - - - - - - - - -
30/05:00am 16.6 NE 3 4 - - - - - - - - - -
30/04:30am 16.8 NNE 5 7 - - - - - - - - - -
30/04:00am 16.8 NNE 5 8 - - - - - - - - - -
30/03:30am 16.8 NE 5 6 - - - - - - - - - -
30/03:00am 16.6 NE 3 5 - - - - - - - - - -
30/02:30am 16.9 NE 4 5 - - - - - - - - - -
30/02:00am 16.8 ENE 3 4 - - - - - - - - - -
30/01:30am 17.6 N 4 6 - - - - - - - - - -
30/01:00am 17.9 N 5 7 - - - - - - - - - -
30/12:30am 17.9 N 5 7 - - - - - - - - - -
30/12:00am 17.9 N 6 8 - - - - - - - - - -
 
Date/Time
EST
Temp

°C
Wind Pressure Rain
since 9am
mm
Weather Cloud Vis
km
Sea
Height
m
Swell
Dir
 
Speed
knots
Gust
knots
hPa Trend Height
m
Period
s
Dir
29/11:30pm 18.0 N 7 9 - - - - - - - - - -
29/11:00pm 17.6 N 4 5 - - - - - - - - - -
29/10:30pm 17.7 N 6 9 - - - - - - - - - -
29/10:00pm 17.8 N 8 10 - - - - - - - - - -
29/09:30pm 18.1 N 12 16 - - - - - - - - - -
29/09:00pm 18.0 N 13 16 - - - - - - - - - -
29/08:30pm 18.1 N 14 18 - - - - - - - - - -
29/08:00pm 17.8 N 11 15 - - - - - - - - - -
29/07:30pm 18.1 N 13 16 - - - - - - - - - -
29/07:00pm 18.0 N 12 15 - - - - - - - - - -
29/06:30pm 18.0 N 9 13 - - - - - - - - - -
29/06:00pm 17.7 N 7 10 - - - - - - - - - -
29/05:30pm 17.3 NNE 5 6 - - - - - - - - - -
29/05:00pm 17.4 N 7 8 - - - - - - - - - -
29/04:30pm 17.3 NNE 5 7 - - - - - - - - - -
29/04:00pm 16.7 NNE 4 6 - - - - - - - - - -
29/03:30pm 16.6 NNE 7 11 - - - - - - - - - -
29/03:00pm 17.0 N 10 13 - - - - - - - - - -
29/02:30pm 16.8 NNE 9 12 - - - - - - - - - -
29/02:00pm 16.9 N 8 10 - - - - - - - - - -
29/01:30pm 16.9 N 9 11 - - - - - - - - - -
29/01:00pm 17.2 N 8 10 - - - - - - - - - -
29/12:30pm 17.6 N 7 9 - - - - - - - - - -
29/12:00pm 17.9 N 13 16 - - - - - - - - - -
29/11:30am 18.9 N 12 14 - - - - - - - - - -
29/11:00am 18.7 N 7 9 - - - - - - - - - -
29/10:30am 18.3 N 7 9 - - - - - - - - - -
29/10:00am 17.8 NNE 5 7 - - - - - - - - - -
29/09:30am 18.4 N 7 9 - - - - - - - - - -
29/09:00am 19.4 NNW 7 9 - - - - - - - - - -
29/08:30am 19.6 WNW 14 22 - - - - - - - - - -
29/08:00am 21.8 NE 7 13 - - - - - - - - - -
29/07:30am 20.6 ENE 5 8 - - - - - - - - - -
29/07:00am 20.1 ENE 5 9 - - - - - - - - - -
29/06:30am 19.9 ENE 4 6 - - - - - - - - - -
29/06:00am 19.9 E 3 5 - - - - - - - - - -
29/05:30am 20.1 ENE 3 4 - - - - - - - - - -
29/05:00am 20.3 ENE 3 5 - - - - - - - - - -
29/04:30am 20.1 E 3 5 - - - - - - - - - -
29/04:00am 20.0 ENE 2 4 - - - - - - - - - -
29/03:30am 20.1 ENE 3 5 - - - - - - - - - -
29/03:00am 19.8 E 4 6 - - - - - - - - - -
29/02:30am 19.5 ENE 4 7 - - - - - - - - - -
29/02:00am 19.3 E 4 6 - - - - - - - - - -
29/01:30am 19.2 E 3 5 - - - - - - - - - -
29/01:00am 19.4 E 5 8 - - - - - - - - - -
29/12:30am 19.9 ESE 6 8 - - - - - - - - - -
29/12:00am 19.1 ESE 4 6 - - - - - - - - - -

Other Formats:

Comma delimited format used in spreadsheet applications
http://www.bom.gov.au/fwo/IDV60701/IDV60701.94871.axf

JavaScript Object Notation format (JSON) in row-major order
http://www.bom.gov.au/fwo/IDV60701/IDV60701.94871.json